createdAt,value
2022-12-17T00:01:04.448Z,5.06
2022-12-17T00:03:49.970Z,5.04
2022-12-17T00:06:36.247Z,5.02
2022-12-17T00:09:21.632Z,5.07
2022-12-17T00:12:07.100Z,5.15
2022-12-17T00:14:52.568Z,5.19
2022-12-17T00:17:39.306Z,5.19
2022-12-17T00:20:24.850Z,5.18
2022-12-17T00:23:20.527Z,5.17
2022-12-17T00:26:20.802Z,5.24
2022-12-17T00:29:10.703Z,5.34
2022-12-17T00:31:56.364Z,5.35
2022-12-17T00:34:42.009Z,5.35
2022-12-17T00:37:28.842Z,5.32
2022-12-17T00:40:14.397Z,5.30
2022-12-17T00:43:00.354Z,5.34
2022-12-17T00:45:46.232Z,5.39
2022-12-17T00:48:31.722Z,5.40
2022-12-17T00:51:17.178Z,5.39
2022-12-17T00:54:04.068Z,5.37
2022-12-17T00:56:52.061Z,5.35
2022-12-17T00:59:37.571Z,5.38
2022-12-17T01:02:23.190Z,5.45
2022-12-17T01:05:08.924Z,5.47
2022-12-17T01:07:54.870Z,5.44
2022-12-17T01:10:42.079Z,5.40
2022-12-17T01:13:27.622Z,5.34
2022-12-17T01:16:13.079Z,5.36
2022-12-17T01:18:58.584Z,5.37
2022-12-17T01:21:51.560Z,5.34
2022-12-17T01:24:37.427Z,5.30
2022-12-17T01:27:24.170Z,5.23
2022-12-17T01:30:09.830Z,5.18
2022-12-17T01:32:55.219Z,5.21
2022-12-17T01:35:40.790Z,5.24
2022-12-17T01:38:32.912Z,5.20
2022-12-17T01:41:18.257Z,5.15
2022-12-17T01:44:03.863Z,5.06
2022-12-17T01:46:52.407Z,4.98
2022-12-17T01:49:39.697Z,4.90
2022-12-17T01:52:25.184Z,4.89
2022-12-17T01:55:10.842Z,4.89
2022-12-17T01:57:58.064Z,4.84
2022-12-17T02:00:43.590Z,4.77
2022-12-17T02:03:36.557Z,4.68
2022-12-17T02:06:37.599Z,4.58
2022-12-17T02:09:27.096Z,4.50
2022-12-17T02:12:21.863Z,4.50
2022-12-17T02:15:11.779Z,4.52
2022-12-17T02:18:00.347Z,4.49
2022-12-17T02:20:49.846Z,4.44
2022-12-17T02:23:47.518Z,4.38
2022-12-17T02:26:49.712Z,4.32
2022-12-17T02:29:38.814Z,4.36
2022-12-17T02:32:24.358Z,4.40
2022-12-17T02:35:09.750Z,4.38
2022-12-17T02:37:55.297Z,4.36
2022-12-17T02:40:41.302Z,4.31
2022-12-17T02:43:27.284Z,4.27
2022-12-17T02:46:13.635Z,4.24
2022-12-17T02:48:59.532Z,4.27
2022-12-17T02:51:46.584Z,4.32
2022-12-17T02:54:32.120Z,4.32
2022-12-17T02:57:17.553Z,4.29
2022-12-17T03:00:03.461Z,4.26
2022-12-17T03:02:49.737Z,4.21
2022-12-17T03:05:45.057Z,4.15
2022-12-17T03:08:31.761Z,4.20
2022-12-17T03:11:17.347Z,4.25
2022-12-17T03:14:02.873Z,4.25
2022-12-17T03:16:48.588Z,4.22
2022-12-17T03:19:34.267Z,4.18
2022-12-17T03:22:19.587Z,4.13
2022-12-17T03:25:04.934Z,4.08
2022-12-17T03:27:50.432Z,4.12
2022-12-17T03:30:39.173Z,4.19
2022-12-17T03:33:27.920Z,4.21
2022-12-17T03:36:13.496Z,4.19
2022-12-17T03:38:58.816Z,4.15
2022-12-17T03:41:44.275Z,4.10
2022-12-17T03:44:29.752Z,4.05
2022-12-17T03:47:15.339Z,4.08
2022-12-17T03:50:00.821Z,4.14
2022-12-17T03:52:46.366Z,4.14
2022-12-17T03:55:31.736Z,4.11
2022-12-17T03:58:17.253Z,4.08
2022-12-17T04:01:02.900Z,4.04
2022-12-17T04:03:48.589Z,3.97
2022-12-17T04:06:34.093Z,3.98
2022-12-17T04:09:19.498Z,4.03
2022-12-17T04:12:04.993Z,4.04
2022-12-17T04:14:50.444Z,4.01
2022-12-17T04:17:36.212Z,3.98
2022-12-17T04:20:22.155Z,3.94
2022-12-17T04:23:07.729Z,3.91
2022-12-17T04:25:53.168Z,3.93
2022-12-17T04:28:38.607Z,3.98
2022-12-17T04:31:24.347Z,3.98
2022-12-17T04:34:09.799Z,3.96
2022-12-17T04:36:55.362Z,3.91
2022-12-17T04:39:40.733Z,3.86
2022-12-17T04:42:26.132Z,3.82
2022-12-17T04:45:11.679Z,3.87
2022-12-17T04:47:57.023Z,3.92
2022-12-17T04:50:56.254Z,3.92
2022-12-17T04:53:41.700Z,3.90
2022-12-17T04:56:27.125Z,3.86
2022-12-17T04:59:12.556Z,3.81
2022-12-17T05:01:58.304Z,3.76
2022-12-17T05:04:43.991Z,3.80
2022-12-17T05:07:29.417Z,3.87
2022-12-17T05:10:14.903Z,3.89
2022-12-17T05:13:00.310Z,3.88
2022-12-17T05:15:51.290Z,3.85
2022-12-17T05:18:38.419Z,3.79
2022-12-17T05:21:23.884Z,3.74
2022-12-17T05:24:09.238Z,3.79
2022-12-17T05:26:54.877Z,3.84
2022-12-17T05:29:42.728Z,3.84
2022-12-17T05:32:28.259Z,3.82
2022-12-17T05:35:13.677Z,3.77
2022-12-17T05:37:59.164Z,3.72
2022-12-17T05:40:44.641Z,3.65
2022-12-17T05:43:31.300Z,3.60
2022-12-17T05:46:17.736Z,3.63
2022-12-17T05:49:03.248Z,3.70
2022-12-17T05:51:48.738Z,3.71
2022-12-17T05:54:34.254Z,3.70
2022-12-17T05:57:19.852Z,3.67
2022-12-17T06:00:05.339Z,3.62
2022-12-17T06:02:57.715Z,3.57
2022-12-17T06:05:43.398Z,3.60
2022-12-17T06:08:28.788Z,3.67
2022-12-17T06:11:17.658Z,3.66
2022-12-17T06:14:03.122Z,3.63
2022-12-17T06:16:48.525Z,3.59
2022-12-17T06:19:33.848Z,3.55
2022-12-17T06:22:19.434Z,3.51
2022-12-17T06:25:04.817Z,3.54
2022-12-17T06:27:50.335Z,3.58
2022-12-17T06:30:35.824Z,3.57
2022-12-17T06:33:28.998Z,3.54
2022-12-17T06:36:21.605Z,3.51
2022-12-17T06:39:07.895Z,3.46
2022-12-17T06:41:54.771Z,3.42
2022-12-17T06:44:47.766Z,3.47
2022-12-17T06:47:33.302Z,3.54
2022-12-17T06:50:18.823Z,3.56
2022-12-17T06:53:04.391Z,3.53
2022-12-17T06:55:49.787Z,3.50
2022-12-17T06:58:35.491Z,3.45
2022-12-17T07:01:21.320Z,3.40
2022-12-17T07:04:06.941Z,3.44
2022-12-17T07:06:55.529Z,3.53
2022-12-17T07:09:42.677Z,3.55
2022-12-17T07:12:28.042Z,3.53
2022-12-17T07:15:13.804Z,3.49
2022-12-17T07:19:56.005Z,3.44
2022-12-17T07:22:55.411Z,3.43
2022-12-17T07:25:45.830Z,3.47
2022-12-17T07:28:32.819Z,3.45
2022-12-17T07:31:20.092Z,3.39
2022-12-17T07:34:08.998Z,3.34
2022-12-17T07:36:57.255Z,3.28
2022-12-17T07:39:47.384Z,3.23
2022-12-17T07:42:33.115Z,3.26
2022-12-17T07:45:18.903Z,3.33
2022-12-17T07:48:13.232Z,3.33
2022-12-17T07:50:58.844Z,3.30
2022-12-17T07:53:44.580Z,3.28
2022-12-17T07:56:30.484Z,3.25
2022-12-17T07:59:16.276Z,3.19
2022-12-17T08:02:04.992Z,3.20
2022-12-17T08:04:51.122Z,3.23
2022-12-17T08:07:36.888Z,3.23
2022-12-17T08:10:26.364Z,3.19
2022-12-17T08:13:18.884Z,3.15
2022-12-17T08:16:04.587Z,3.09
2022-12-17T08:18:50.457Z,3.04
2022-12-17T08:21:36.086Z,3.08
2022-12-17T08:24:21.807Z,3.15
2022-12-17T08:27:07.507Z,3.16
2022-12-17T08:29:53.398Z,3.14
2022-12-17T08:32:39.183Z,3.11
2022-12-17T08:35:24.986Z,3.06
2022-12-17T08:38:12.202Z,3.01
2022-12-17T08:48:56.059Z,3.17
2022-12-17T08:51:45.172Z,3.15
2022-12-17T08:54:31.013Z,3.13
2022-12-17T08:57:30.624Z,3.12
2022-12-17T09:00:19.379Z,3.18
2022-12-17T09:03:05.055Z,3.29
2022-12-17T09:05:50.578Z,3.32
2022-12-17T09:08:36.112Z,3.31
2022-12-17T09:11:21.447Z,3.30
2022-12-17T09:14:06.987Z,3.27
2022-12-17T09:16:52.503Z,3.24
2022-12-17T09:19:38.037Z,3.29
2022-12-17T09:22:23.653Z,3.36
2022-12-17T09:25:09.308Z,3.38
2022-12-17T09:27:54.872Z,3.37
2022-12-17T09:30:40.341Z,3.35
2022-12-17T09:33:25.784Z,3.30
2022-12-17T09:36:11.293Z,3.26
2022-12-17T09:38:56.726Z,3.31
2022-12-17T09:41:51.383Z,3.39
2022-12-17T09:44:45.418Z,3.42
2022-12-17T09:47:52.452Z,3.44
2022-12-17T09:50:37.893Z,3.41
2022-12-17T09:53:29.443Z,3.38
2022-12-17T09:56:14.948Z,3.35
2022-12-17T09:59:00.536Z,3.40
2022-12-17T10:01:49.696Z,3.47
2022-12-17T10:04:56.137Z,3.49
2022-12-17T10:07:43.526Z,3.45
2022-12-17T10:10:34.206Z,3.42
2022-12-17T10:13:19.644Z,3.40
2022-12-17T10:16:05.903Z,3.39
2022-12-17T10:19:00.836Z,3.46
2022-12-17T10:21:50.768Z,3.53
2022-12-17T10:24:36.359Z,3.54
2022-12-17T10:27:28.969Z,3.54
2022-12-17T10:30:14.524Z,3.51
2022-12-17T10:33:00.116Z,3.47
2022-12-17T10:35:53.710Z,3.44
2022-12-17T10:38:41.772Z,3.50
2022-12-17T10:41:37.898Z,3.54
2022-12-17T10:44:38.313Z,3.55
2022-12-17T10:47:26.387Z,3.53
2022-12-17T10:50:16.567Z,3.53
2022-12-17T10:53:14.127Z,3.50
2022-12-17T10:56:13.121Z,3.49
2022-12-17T10:59:05.919Z,3.54
2022-12-17T11:01:51.513Z,3.60
2022-12-17T11:04:57.432Z,3.60
2022-12-17T11:07:43.806Z,3.56
2022-12-17T11:10:44.253Z,3.52
2022-12-17T11:13:35.110Z,3.49
2022-12-17T11:16:20.803Z,3.50
2022-12-17T11:19:17.549Z,3.59
2022-12-17T11:22:05.906Z,3.73
2022-12-17T11:24:53.911Z,3.79
2022-12-17T11:27:41.088Z,3.81
2022-12-17T11:30:33.671Z,3.83
2022-12-17T11:33:25.254Z,3.84
2022-12-17T11:36:13.742Z,3.86
2022-12-17T11:39:25.677Z,3.96
2022-12-17T11:42:17.400Z,4.01
2022-12-17T11:45:06.508Z,3.98
2022-12-17T11:48:15.358Z,3.92
2022-12-17T11:51:33.479Z,3.86
2022-12-17T11:54:19.985Z,3.81
2022-12-17T11:57:10.473Z,3.76
2022-12-17T12:00:04.560Z,3.82
2022-12-17T12:03:09.305Z,3.87
2022-12-17T12:06:17.898Z,3.85
2022-12-17T12:09:52.561Z,3.81
2022-12-17T12:12:59.025Z,3.72
2022-12-17T12:15:55.763Z,3.63
2022-12-17T12:18:57.287Z,3.56
2022-12-17T12:21:59.070Z,3.60
2022-12-17T12:25:02.595Z,3.64
2022-12-17T12:28:24.124Z,3.63
2022-12-17T12:31:25.974Z,3.59
2022-12-17T12:34:19.511Z,3.53
2022-12-17T12:37:05.050Z,3.47
2022-12-17T12:39:57.026Z,3.42
2022-12-17T12:42:56.272Z,3.45
2022-12-17T12:46:03.685Z,3.51
2022-12-17T12:48:55.514Z,3.49
2022-12-17T12:51:48.204Z,3.44
2022-12-17T12:54:47.563Z,3.38
2022-12-17T12:57:52.491Z,3.27
2022-12-17T13:00:44.267Z,3.14
2022-12-17T13:03:58.293Z,3.01
2022-12-17T13:06:40.110Z,2.99
2022-12-17T13:09:19.051Z,3.00
2022-12-17T13:11:48.255Z,2.97
2022-12-17T13:14:20.850Z,2.93
2022-12-17T13:16:47.765Z,2.89
2022-12-17T13:19:40.270Z,2.84
2022-12-17T13:22:10.107Z,2.78
2022-12-17T13:24:37.029Z,2.69
2022-12-17T13:27:04.294Z,2.62
2022-12-17T13:29:36.167Z,2.62
2022-12-17T13:32:19.915Z,2.69
2022-12-17T13:34:58.379Z,2.72
2022-12-17T13:37:29.302Z,2.71
2022-12-17T13:40:01.782Z,2.70
2022-12-17T13:42:33.070Z,2.67
2022-12-17T13:44:59.990Z,2.64
2022-12-17T13:47:35.244Z,2.60
2022-12-17T13:50:32.809Z,2.55
2022-12-17T13:52:56.923Z,2.58
2022-12-17T13:55:25.666Z,2.63
2022-12-17T13:57:54.218Z,2.63
2022-12-17T14:00:23.399Z,2.62
2022-12-17T14:02:53.124Z,2.60
2022-12-17T14:05:40.324Z,2.57
2022-12-17T14:08:07.316Z,2.52
2022-12-17T14:10:34.144Z,2.46
2022-12-17T14:13:10.661Z,2.40
2022-12-17T14:15:37.611Z,2.32
2022-12-17T14:18:04.532Z,2.24
2022-12-17T14:20:33.075Z,2.25
2022-12-17T14:23:06.189Z,2.31
2022-12-17T14:25:38.165Z,2.33
2022-12-17T14:28:07.205Z,2.30
2022-12-17T14:31:17.126Z,2.27
2022-12-17T14:33:31.471Z,2.21
2022-12-17T14:36:09.033Z,2.15
2022-12-17T14:38:39.482Z,2.09
2022-12-17T14:41:31.101Z,2.03
2022-12-17T14:43:59.006Z,1.97
2022-12-17T14:46:34.103Z,2.00
2022-12-17T14:49:12.312Z,2.05
2022-12-17T14:51:40.617Z,2.06
2022-12-17T14:54:20.517Z,2.03
2022-12-17T14:56:54.694Z,1.98
2022-12-17T14:59:35.375Z,1.92
2022-12-17T15:02:09.333Z,1.82
2022-12-17T15:04:37.147Z,1.68
2022-12-17T15:07:04.420Z,1.55
2022-12-17T15:09:35.308Z,1.46
2022-12-17T15:12:04.782Z,1.40
2022-12-17T15:14:32.133Z,1.43
2022-12-17T15:17:07.026Z,1.49
2022-12-17T15:19:33.860Z,1.51
2022-12-17T15:22:00.785Z,1.49
2022-12-17T15:24:27.604Z,1.48
2022-12-17T15:26:58.351Z,1.43
2022-12-17T15:29:25.212Z,1.38
2022-12-17T15:31:54.436Z,1.34
2022-12-17T15:34:23.528Z,1.30
2022-12-17T15:36:50.351Z,1.25
2022-12-17T15:39:17.453Z,1.19
2022-12-17T15:42:03.319Z,1.19
2022-12-17T15:44:30.116Z,1.27
2022-12-17T15:47:00.114Z,1.30
2022-12-17T15:49:27.182Z,1.32
2022-12-17T15:51:54.008Z,1.32
2022-12-17T15:54:20.911Z,1.31
2022-12-17T15:56:52.675Z,1.29
2022-12-17T15:59:19.744Z,1.27
2022-12-17T16:01:52.027Z,1.25
2022-12-17T16:04:24.646Z,1.21
2022-12-17T16:06:52.031Z,1.16
2022-12-17T16:09:19.547Z,1.18
2022-12-17T16:11:47.326Z,1.23
2022-12-17T16:14:14.184Z,1.26
2022-12-17T16:16:43.350Z,1.25
2022-12-17T16:19:10.717Z,1.22
2022-12-17T16:21:42.041Z,1.17
2022-12-17T16:24:12.228Z,1.12
2022-12-17T16:26:40.143Z,1.08
2022-12-17T16:29:07.048Z,1.02
2022-12-17T16:31:34.363Z,1.00
2022-12-17T16:34:01.236Z,1.03
2022-12-17T16:36:28.039Z,1.11
2022-12-17T16:38:55.136Z,1.16
2022-12-17T16:41:22.040Z,1.16
2022-12-17T16:43:51.434Z,1.14
2022-12-17T16:46:34.389Z,1.11
2022-12-17T16:49:09.422Z,1.06
2022-12-17T16:51:38.911Z,0.96
2022-12-17T16:54:14.465Z,0.88
2022-12-17T16:56:41.428Z,0.83
2022-12-17T16:59:11.163Z,0.86
2022-12-17T17:01:38.919Z,0.94
2022-12-17T17:04:06.945Z,0.97
2022-12-17T17:06:41.321Z,0.96
2022-12-17T17:09:08.263Z,0.95
2022-12-17T17:11:35.181Z,0.93
2022-12-17T17:14:04.911Z,0.91
2022-12-17T17:16:31.844Z,0.88
2022-12-17T17:18:58.745Z,0.84
2022-12-17T17:21:30.339Z,0.78
2022-12-17T17:24:20.851Z,0.75
2022-12-17T17:26:49.075Z,0.78
2022-12-17T17:29:15.901Z,0.79
2022-12-17T17:34:30.119Z,0.76
2022-12-17T17:37:04.301Z,0.73
2022-12-17T17:39:33.455Z,0.67
2022-12-17T17:42:00.915Z,0.62
2022-12-17T17:44:28.002Z,0.56
2022-12-17T17:46:54.896Z,0.50
2022-12-17T17:49:22.388Z,0.45
2022-12-17T17:52:08.947Z,0.48
2022-12-17T17:54:36.492Z,0.59
2022-12-17T17:57:05.617Z,0.63
2022-12-17T17:59:34.019Z,0.63
2022-12-17T18:02:01.710Z,0.61
2022-12-17T18:04:28.694Z,0.60
2022-12-17T18:07:24.075Z,0.59
2022-12-17T18:09:42.544Z,0.56
2022-12-17T18:12:27.971Z,0.54
2022-12-17T18:17:41.946Z,0.46
2022-12-17T18:20:09.902Z,0.47
2022-12-17T18:22:37.000Z,0.55
2022-12-17T18:25:04.370Z,0.60
2022-12-17T18:27:34.257Z,0.61
2022-12-17T18:30:01.292Z,0.60
2022-12-17T18:32:30.214Z,0.57
2022-12-17T18:34:57.170Z,0.51
2022-12-17T18:37:26.808Z,0.45
2022-12-17T18:39:53.640Z,0.40
2022-12-17T18:42:40.417Z,0.36
2022-12-17T18:45:07.809Z,0.30
2022-12-17T18:47:39.678Z,0.24
2022-12-17T18:50:06.938Z,0.24
2022-12-17T18:52:33.833Z,0.34
2022-12-17T18:55:04.372Z,0.38
2022-12-17T18:57:43.240Z,0.39
2022-12-17T19:00:17.205Z,0.37
2022-12-17T19:02:44.624Z,0.33
2022-12-17T19:05:11.595Z,0.29
2022-12-17T19:07:38.585Z,0.27
2022-12-17T19:10:10.179Z,0.25
2022-12-17T19:12:40.542Z,0.23
2022-12-17T19:15:11.288Z,0.19
2022-12-17T19:17:41.702Z,0.16
2022-12-17T19:20:09.348Z,0.22
2022-12-17T19:22:36.225Z,0.31
2022-12-17T19:25:03.255Z,0.37
2022-12-17T19:27:30.150Z,0.39
2022-12-17T19:29:57.612Z,0.40
2022-12-17T19:32:25.052Z,0.39
2022-12-17T19:37:23.172Z,0.34
2022-12-17T19:39:50.176Z,0.28
2022-12-17T19:42:27.606Z,0.24
2022-12-17T19:44:57.443Z,0.18
2022-12-17T19:47:24.630Z,0.13
2022-12-17T19:49:51.573Z,0.07
2022-12-17T19:52:21.226Z,0.07
2022-12-17T19:54:48.789Z,0.14
2022-12-17T19:57:15.880Z,0.18
2022-12-17T19:59:45.166Z,0.17
2022-12-17T20:02:12.303Z,0.14
2022-12-17T20:04:42.292Z,0.11
2022-12-17T20:07:09.080Z,0.10
2022-12-17T20:09:45.617Z,0.09
2022-12-17T20:12:12.850Z,0.08
2022-12-17T20:14:39.744Z,0.03
2022-12-17T20:17:06.717Z,-0.01
2022-12-17T20:19:35.262Z,-0.07
2022-12-17T20:22:05.977Z,-0.13
2022-12-17T20:24:38.082Z,-0.17
2022-12-17T20:27:09.472Z,-0.21
2022-12-17T20:29:36.369Z,-0.16
2022-12-17T20:32:03.630Z,-0.07
2022-12-17T20:34:30.725Z,-0.03
2022-12-17T20:36:57.544Z,-0.02
2022-12-17T20:39:28.253Z,-0.05
2022-12-17T20:41:56.448Z,-0.08
2022-12-17T20:44:23.464Z,-0.11
2022-12-17T20:46:50.396Z,-0.13
2022-12-17T20:49:18.378Z,-0.16
2022-12-17T20:51:46.036Z,-0.19
2022-12-17T20:54:12.858Z,-0.23
2022-12-17T20:56:40.100Z,-0.30
2022-12-17T20:59:08.709Z,-0.37
2022-12-17T21:01:36.137Z,-0.45
2022-12-17T21:04:03.482Z,-0.51
2022-12-17T21:06:34.802Z,-0.55
2022-12-17T21:09:03.512Z,-0.50
2022-12-17T21:11:32.987Z,-0.38
2022-12-17T21:14:10.308Z,-0.31
2022-12-17T21:16:38.416Z,-0.28
2022-12-17T21:19:26.606Z,-0.27
2022-12-17T21:22:32.285Z,-0.27
2022-12-17T21:25:01.562Z,-0.27
2022-12-17T21:27:29.851Z,-0.29
2022-12-17T21:29:57.250Z,-0.29
2022-12-17T21:32:28.819Z,-0.31
2022-12-17T21:35:00.411Z,-0.33
2022-12-17T21:37:27.530Z,-0.35
2022-12-17T21:39:59.544Z,-0.37
2022-12-17T21:42:45.529Z,-0.40
2022-12-17T21:45:12.670Z,-0.43
2022-12-17T21:47:39.905Z,-0.40
2022-12-17T21:50:07.241Z,-0.29
2022-12-17T21:52:34.103Z,-0.23
2022-12-17T21:55:00.966Z,-0.21
2022-12-17T21:57:27.815Z,-0.20
2022-12-17T21:59:54.615Z,-0.19
2022-12-17T22:02:25.050Z,-0.20
2022-12-17T22:04:52.148Z,-0.19
2022-12-17T22:07:22.436Z,-0.19
2022-12-17T22:10:17.764Z,-0.20
2022-12-17T22:13:03.096Z,-0.21
2022-12-17T22:15:30.994Z,-0.23
2022-12-17T22:18:05.264Z,-0.26
2022-12-17T22:20:37.767Z,-0.29
2022-12-17T22:23:06.826Z,-0.32
2022-12-17T22:25:43.652Z,-0.29
2022-12-17T22:28:10.724Z,-0.19
2022-12-17T22:30:59.903Z,-0.13
2022-12-17T22:34:27.179Z,-0.11
2022-12-17T22:38:54.452Z,-0.11
2022-12-17T22:42:42.325Z,-0.10
2022-12-17T22:44:41.941Z,-0.11
2022-12-17T22:45:10.310Z,-0.12
2022-12-17T22:47:41.689Z,-0.14
2022-12-17T22:50:08.924Z,-0.15
2022-12-17T22:52:38.985Z,-0.16
2022-12-17T22:55:09.490Z,-0.15
2022-12-17T22:57:38.550Z,-0.16
2022-12-17T23:00:20.303Z,-0.11
2022-12-17T23:02:47.283Z,-0.02
2022-12-17T23:05:14.771Z,0.02
2022-12-17T23:07:41.615Z,0.04
2022-12-17T23:10:08.893Z,0.03
2022-12-17T23:12:50.871Z,0.02
2022-12-17T23:15:42.978Z,-0.00
2022-12-17T23:18:12.567Z,-0.02
2022-12-17T23:20:39.400Z,-0.04
2022-12-17T23:23:06.345Z,-0.06
2022-12-17T23:25:33.602Z,-0.09
2022-12-17T23:28:00.447Z,-0.11
2022-12-17T23:30:27.192Z,-0.12
2022-12-17T23:32:53.976Z,-0.15
2022-12-17T23:35:20.966Z,-0.12
2022-12-17T23:37:47.893Z,-0.02
2022-12-17T23:40:14.861Z,0.02
2022-12-17T23:42:42.595Z,0.02
2022-12-17T23:45:11.506Z,0.02
2022-12-17T23:47:41.325Z,-0.01
2022-12-17T23:50:11.264Z,-0.04
2022-12-17T23:52:38.402Z,-0.08
2022-12-17T23:55:05.543Z,-0.12
2022-12-17T23:57:32.705Z,-0.15
